Time;durP1;ratioP1;P1;durP2;ratioP2;P2;SDS_P1;SDS_P2;PMS_P1;PMS_P2;Temp;Humidity;BMP_temperature;BMP_pressure;BME280_temperature;BME280_humidity;BME280_pressure;Samples;Min_cycle;Max_cycle;Signal;HPM_P1;HPM_P2
2022/09/11 00:01:04;;;;;;;17.05;14.20;;;17.30;99.90;;;;;;5127532;28;20398;-71
2022/09/11 00:03:30;;;;;;;18.73;14.63;;;17.40;99.90;;;;;;5122680;28;20439;-71
2022/09/11 00:06:05;;;;;;;18.13;14.77;;;17.30;99.90;;;;;;5127203;28;20441;-72
2022/09/11 00:08:31;;;;;;;19.15;15.85;;;17.30;99.90;;;;;;5126353;28;20395;-71
2022/09/11 00:11:07;;;;;;;19.73;16.45;;;17.30;99.90;;;;;;5114355;27;20420;-71
2022/09/11 00:13:34;;;;;;;18.23;15.48;;;17.20;99.90;;;;;;5121764;28;20816;-71
2022/09/11 00:16:04;;;;;;;19.67;16.40;;;17.10;99.90;;;;;;5124344;28;20399;-71
2022/09/11 00:18:30;;;;;;;19.13;16.23;;;17.00;99.90;;;;;;5126869;28;20726;-71
2022/09/11 00:20:57;;;;;;;22.70;16.73;;;17.00;99.90;;;;;;5126864;28;20398;-71
2022/09/11 00:23:25;;;;;;;19.73;16.23;;;16.90;99.90;;;;;;5119466;28;20419;-71
2022/09/11 00:25:52;;;;;;;22.38;16.92;;;16.90;99.90;;;;;;5124799;28;20460;-71
2022/09/11 00:28:23;;;;;;;22.63;16.07;;;16.80;99.90;;;;;;5128463;27;20390;-71
2022/09/11 00:31:01;;;;;;;20.42;16.27;;;16.80;99.90;;;;;;5121175;27;20417;-71
2022/09/11 00:33:27;;;;;;;19.13;16.50;;;16.80;99.90;;;;;;5123423;27;20904;-72
2022/09/11 00:35:58;;;;;;;20.70;15.87;;;16.80;99.90;;;;;;5102903;27;20410;-71
2022/09/11 00:38:28;;;;;;;18.58;15.20;;;16.80;99.90;;;;;;5120681;28;20403;-71
2022/09/11 00:40:59;;;;;;;22.73;17.10;;;16.80;99.90;;;;;;5103172;28;20449;-71
2022/09/11 00:43:27;;;;;;;22.98;16.80;;;16.80;99.90;;;;;;5127524;28;20428;-71
2022/09/11 00:45:59;;;;;;;21.02;16.58;;;16.80;99.90;;;;;;5128771;27;20456;-72
2022/09/11 00:48:33;;;;;;;21.20;16.67;;;16.80;99.90;;;;;;5114819;27;20455;-71
2022/09/11 00:51:02;;;;;;;19.73;16.60;;;16.70;99.90;;;;;;5128370;27;20780;-71
2022/09/11 00:53:32;;;;;;;20.25;16.77;;;16.70;99.90;;;;;;5118158;28;20513;-71
2022/09/11 00:56:02;;;;;;;22.10;17.55;;;16.70;99.90;;;;;;5106936;27;20438;-71
2022/09/11 00:58:33;;;;;;;23.95;17.92;;;16.70;99.90;;;;;;5113714;27;20475;-71
2022/09/11 01:00:59;;;;;;;20.37;17.60;;;16.70;99.90;;;;;;5122904;27;20403;-72
2022/09/11 01:03:25;;;;;;;20.92;17.35;;;16.60;99.90;;;;;;5127731;27;20394;-72
2022/09/11 01:05:53;;;;;;;20.15;16.55;;;16.60;99.90;;;;;;5131832;27;20805;-71
2022/09/11 01:08:22;;;;;;;21.30;16.40;;;16.70;99.90;;;;;;5131700;27;20407;-71
2022/09/11 01:11:28;;;;;;;24.77;16.75;;;16.60;99.90;;;;;;5131806;27;20423;-73
2022/09/11 01:14:19;;;;;;;20.20;16.00;;;16.60;99.90;;;;;;5120586;27;20406;-71
2022/09/11 01:16:52;;;;;;;20.63;15.77;;;16.60;99.90;;;;;;5128577;27;20415;-72
2022/09/11 01:19:44;;;;;;;20.13;15.35;;;16.60;99.90;;;;;;5130814;27;20391;-73
2022/09/11 01:22:21;;;;;;;19.65;14.98;;;16.60;99.90;;;;;;5122035;27;20411;-73
2022/09/11 01:25:27;;;;;;;19.55;15.27;;;16.60;99.90;;;;;;5130558;27;20434;-71
2022/09/11 01:27:57;;;;;;;19.67;14.52;;;16.60;99.90;;;;;;5117953;27;20825;-72
2022/09/11 01:30:36;;;;;;;19.17;14.35;;;16.60;99.90;;;;;;5129110;27;20434;-71
2022/09/11 01:33:06;;;;;;;18.60;14.25;;;16.60;99.90;;;;;;5130048;27;20547;-72
2022/09/11 01:35:52;;;;;;;16.98;13.63;;;16.60;99.90;;;;;;5122761;27;20424;-71
2022/09/11 01:38:30;;;;;;;17.35;13.73;;;16.60;99.90;;;;;;5119341;27;20395;-72
2022/09/11 01:41:07;;;;;;;17.60;13.30;;;16.60;99.90;;;;;;5117426;27;20450;-72
2022/09/11 01:43:38;;;;;;;18.10;13.18;;;16.60;99.90;;;;;;5130751;27;20964;-71
2022/09/11 01:46:06;;;;;;;15.73;12.85;;;16.60;99.90;;;;;;5117401;27;20915;-71
2022/09/11 01:48:41;;;;;;;16.23;12.60;;;16.50;99.90;;;;;;5129324;27;20413;-71
2022/09/11 01:51:11;;;;;;;15.85;12.18;;;16.50;99.90;;;;;;5112973;27;20517;-71
2022/09/11 01:53:39;;;;;;;16.20;12.10;;;16.60;99.90;;;;;;5131506;27;20410;-71
2022/09/11 01:56:12;;;;;;;15.25;12.15;;;16.60;99.90;;;;;;5122503;27;20400;-71
2022/09/11 01:58:40;;;;;;;15.00;11.65;;;16.60;99.90;;;;;;5110270;27;20404;-71
2022/09/11 02:01:11;;;;;;;16.70;11.60;;;16.60;99.90;;;;;;5120485;27;20399;-71
2022/09/11 02:03:41;;;;;;;13.65;11.45;;;16.60;99.90;;;;;;5117575;27;20402;-71
2022/09/11 02:06:31;;;;;;;15.57;11.27;;;16.60;99.90;;;;;;5117563;27;20545;-72
2022/09/11 02:09:01;;;;;;;16.58;11.55;;;16.50;99.90;;;;;;5117051;27;20477;-71
2022/09/11 02:11:33;;;;;;;14.88;10.90;;;16.50;99.90;;;;;;5130531;27;20531;-71
2022/09/11 02:14:28;;;;;;;14.48;10.68;;;16.50;99.90;;;;;;5125695;27;20396;-71
2022/09/11 02:17:07;;;;;;;13.25;10.90;;;16.40;99.90;;;;;;5126699;27;20402;-71
2022/09/11 02:19:33;;;;;;;13.88;10.95;;;16.40;99.90;;;;;;5128860;27;20414;-71
2022/09/11 02:21:59;;;;;;;14.55;11.60;;;16.40;99.90;;;;;;5130449;27;20912;-71
2022/09/11 02:24:26;;;;;;;13.27;10.40;;;16.30;99.90;;;;;;5129771;27;20416;-71
2022/09/11 02:27:00;;;;;;;11.70;10.45;;;16.30;99.90;;;;;;5130633;27;20401;-71
2022/09/11 02:29:26;;;;;;;13.48;11.30;;;16.20;99.90;;;;;;5129804;27;20449;-71
2022/09/11 02:31:53;;;;;;;13.65;11.13;;;16.20;99.90;;;;;;5111172;27;20411;-71
2022/09/11 02:34:27;;;;;;;15.13;11.07;;;16.20;99.90;;;;;;5129556;27;20615;-71
2022/09/11 02:37:17;;;;;;;13.43;10.57;;;16.10;99.90;;;;;;5130327;27;20394;-71
2022/09/11 02:39:45;;;;;;;14.27;10.90;;;16.10;99.90;;;;;;5109891;27;20409;-71
2022/09/11 02:42:53;;;;;;;12.23;10.70;;;16.00;99.90;;;;;;5123005;27;20917;-71
2022/09/11 02:45:40;;;;;;;13.38;10.60;;;16.00;99.90;;;;;;5065695;27;20534;-71
2022/09/11 02:48:24;;;;;;;13.30;10.27;;;16.00;99.90;;;;;;5109028;28;20430;-71
2022/09/11 02:51:07;;;;;;;12.90;9.93;;;16.00;99.90;;;;;;5116583;27;20423;-71
2022/09/11 02:53:55;;;;;;;13.25;10.70;;;16.00;99.90;;;;;;5128387;27;20407;-70
2022/09/11 02:56:36;;;;;;;13.98;10.65;;;16.00;99.90;;;;;;5124675;27;20423;-72
2022/09/11 02:59:25;;;;;;;15.55;10.70;;;15.90;99.90;;;;;;5133844;27;20442;-71
2022/09/11 03:01:59;;;;;;;14.10;10.83;;;15.90;99.90;;;;;;5135573;27;20399;-71
2022/09/11 03:04:25;;;;;;;13.82;10.30;;;15.80;99.90;;;;;;5138261;27;20440;-71
2022/09/11 03:06:52;;;;;;;13.37;10.70;;;15.80;99.90;;;;;;5150766;27;20386;-71
2022/09/11 03:09:18;;;;;;;14.18;10.55;;;15.80;99.90;;;;;;5123537;27;20403;-71
2022/09/11 03:11:44;;;;;;;14.15;10.73;;;15.90;99.90;;;;;;5116874;27;20401;-71
2022/09/11 03:14:10;;;;;;;14.00;11.10;;;15.90;99.90;;;;;;5129113;27;20772;-71
2022/09/11 03:16:36;;;;;;;13.38;11.05;;;15.90;99.90;;;;;;5128191;27;20892;-71
2022/09/11 03:19:03;;;;;;;15.60;11.75;;;16.00;99.90;;;;;;5118816;27;20397;-72
2022/09/11 03:21:29;;;;;;;14.82;11.43;;;15.90;99.90;;;;;;5126756;27;20402;-71
2022/09/11 03:23:56;;;;;;;15.43;11.38;;;16.00;99.90;;;;;;5129861;27;20440;-71
2022/09/11 03:26:22;;;;;;;15.00;10.97;;;16.00;99.90;;;;;;5129579;27;20407;-71
2022/09/11 03:28:49;;;;;;;13.93;10.75;;;16.00;99.90;;;;;;5129945;27;20395;-71
2022/09/11 03:31:15;;;;;;;14.32;10.45;;;16.00;99.90;;;;;;5122527;27;20942;-72
2022/09/11 03:33:41;;;;;;;14.02;11.18;;;16.10;99.90;;;;;;5129654;27;20462;-71
2022/09/11 03:36:08;;;;;;;13.20;11.18;;;16.00;99.90;;;;;;5129528;27;20415;-71
2022/09/11 03:38:34;;;;;;;13.80;10.43;;;16.00;99.90;;;;;;5126403;27;20410;-71
2022/09/11 03:41:01;;;;;;;13.35;10.55;;;16.00;99.90;;;;;;5154238;27;20394;-71
2022/09/11 03:43:27;;;;;;;12.02;10.10;;;15.90;99.90;;;;;;5153286;27;20414;-71
2022/09/11 03:45:52;;;;;;;13.87;9.63;;;15.90;99.90;;;;;;5154492;27;20390;-71
2022/09/11 03:48:18;;;;;;;13.30;10.20;;;15.90;99.90;;;;;;5153458;27;20393;-71
2022/09/11 03:50:45;;;;;;;12.10;9.57;;;15.80;99.90;;;;;;5153233;27;20716;-71
2022/09/11 03:53:11;;;;;;;11.90;9.90;;;15.80;99.90;;;;;;5132098;27;20795;-71
2022/09/11 03:55:37;;;;;;;12.73;10.15;;;15.80;99.90;;;;;;5128652;27;20462;-71
2022/09/11 03:58:03;;;;;;;12.13;9.93;;;15.70;99.90;;;;;;5127845;27;20408;-71
2022/09/11 04:00:28;;;;;;;13.65;9.93;;;15.70;99.90;;;;;;5100274;28;20392;-71
2022/09/11 04:02:54;;;;;;;13.27;9.90;;;15.70;99.90;;;;;;5122750;28;20399;-71
2022/09/11 04:05:23;;;;;;;14.88;10.23;;;15.60;99.90;;;;;;5120776;28;20527;-71
2022/09/11 04:07:49;;;;;;;11.95;9.70;;;15.60;99.90;;;;;;5098130;28;20452;-71
2022/09/11 04:10:14;;;;;;;11.65;9.98;;;15.60;99.90;;;;;;5128543;27;20777;-71
2022/09/11 04:12:40;;;;;;;12.05;10.25;;;15.50;99.90;;;;;;5127952;28;20406;-72
2022/09/11 04:15:07;;;;;;;13.93;10.70;;;15.50;99.90;;;;;;5128604;27;20406;-71
2022/09/11 04:17:33;;;;;;;13.13;10.65;;;15.50;99.90;;;;;;5128476;27;20469;-71
2022/09/11 04:19:59;;;;;;;14.93;11.10;;;15.50;99.90;;;;;;5117712;28;20400;-71
2022/09/11 04:22:25;;;;;;;13.82;11.55;;;15.40;99.90;;;;;;5126626;28;20971;-71
2022/09/11 04:24:51;;;;;;;13.15;10.80;;;15.40;99.90;;;;;;5128956;28;20473;-72
2022/09/11 04:27:17;;;;;;;13.50;10.20;;;15.40;99.90;;;;;;5110912;28;20883;-71
2022/09/11 04:29:43;;;;;;;13.30;10.50;;;15.40;99.90;;;;;;5111743;27;20775;-71
2022/09/11 04:32:10;;;;;;;13.80;10.65;;;15.40;99.90;;;;;;5114159;27;20410;-72
2022/09/11 04:34:36;;;;;;;12.85;10.45;;;15.30;99.90;;;;;;5114413;27;20402;-72
2022/09/11 04:37:02;;;;;;;13.47;10.50;;;15.30;99.90;;;;;;5127311;27;20449;-72
2022/09/11 04:39:28;;;;;;;12.43;10.45;;;15.30;99.90;;;;;;5124315;27;20402;-71
2022/09/11 04:41:54;;;;;;;14.98;10.50;;;15.30;99.90;;;;;;5119242;27;20397;-72
2022/09/11 04:44:20;;;;;;;13.23;10.18;;;15.20;99.90;;;;;;5132690;27;20549;-72
2022/09/11 04:46:46;;;;;;;11.18;9.82;;;15.20;99.90;;;;;;5132641;27;20390;-71
2022/09/11 04:49:13;;;;;;;11.90;9.80;;;15.20;99.90;;;;;;5133241;27;20387;-71
2022/09/11 04:51:39;;;;;;;14.45;10.15;;;15.10;99.90;;;;;;5114730;27;20771;-71
2022/09/11 04:54:06;;;;;;;12.25;9.60;;;15.10;99.90;;;;;;5124121;27;20469;-71
2022/09/11 04:56:36;;;;;;;12.43;9.97;;;15.10;99.90;;;;;;5118765;27;20409;-71
2022/09/11 04:59:22;;;;;;;14.70;9.73;;;15.10;99.90;;;;;;5120079;27;20396;-71
2022/09/11 05:01:48;;;;;;;11.30;9.73;;;15.10;99.90;;;;;;5120340;27;20411;-71
2022/09/11 05:04:15;;;;;;;13.20;9.60;;;15.10;99.90;;;;;;5118937;27;20426;-71
2022/09/11 05:06:44;;;;;;;11.23;9.48;;;15.10;99.90;;;;;;5131886;27;20914;-70
2022/09/11 05:09:10;;;;;;;11.15;9.35;;;15.00;99.90;;;;;;5116028;27;20408;-71
2022/09/11 05:11:38;;;;;;;12.35;9.70;;;15.00;99.90;;;;;;5120076;27;20430;-71
2022/09/11 05:14:04;;;;;;;13.43;9.85;;;15.00;99.90;;;;;;5131658;27;20394;-71
2022/09/11 05:16:35;;;;;;;11.55;9.38;;;15.00;99.90;;;;;;5129836;27;20407;-71
2022/09/11 05:19:05;;;;;;;12.02;9.90;;;15.00;99.90;;;;;;5130999;27;20903;-72
2022/09/11 05:21:32;;;;;;;15.10;9.82;;;15.00;99.90;;;;;;5121138;27;21119;-71
2022/09/11 05:24:00;;;;;;;13.32;10.30;;;15.00;99.90;;;;;;5120749;27;20483;-71
2022/09/11 05:26:34;;;;;;;11.23;9.65;;;15.00;99.90;;;;;;5121788;27;20398;-71
2022/09/11 05:29:02;;;;;;;12.02;9.73;;;15.00;99.90;;;;;;5117882;27;20466;-71
2022/09/11 05:31:28;;;;;;;13.30;10.07;;;15.00;99.90;;;;;;5131490;27;20422;-71
2022/09/11 05:33:55;;;;;;;13.93;9.50;;;15.00;99.90;;;;;;5131525;27;20394;-72
2022/09/11 05:36:21;;;;;;;11.57;9.57;;;15.00;99.90;;;;;;5118923;27;20776;-70
2022/09/11 05:38:47;;;;;;;13.68;9.70;;;15.00;99.90;;;;;;5130163;27;20398;-71
2022/09/11 05:41:13;;;;;;;12.17;9.57;;;15.00;99.90;;;;;;5130858;27;20403;-72
2022/09/11 05:43:40;;;;;;;13.63;9.98;;;15.00;99.90;;;;;;5111640;27;20495;-71
2022/09/11 05:46:10;;;;;;;14.70;10.95;;;15.00;99.90;;;;;;5123186;27;20394;-71
2022/09/11 05:48:35;;;;;;;13.05;10.52;;;15.10;99.90;;;;;;5130874;27;20421;-71
2022/09/11 05:51:05;;;;;;;12.40;10.38;;;15.10;99.90;;;;;;5131139;27;20509;-71
2022/09/11 05:53:32;;;;;;;12.68;9.38;;;15.00;99.90;;;;;;5131062;27;20401;-70
2022/09/11 05:56:05;;;;;;;11.52;9.23;;;15.00;99.90;;;;;;5131209;27;20451;-71
2022/09/11 05:58:31;;;;;;;11.70;9.18;;;15.10;99.90;;;;;;5125298;27;20409;-71
2022/09/11 06:01:07;;;;;;;11.05;9.07;;;15.10;99.90;;;;;;5130997;27;20402;-71
2022/09/11 06:03:34;;;;;;;10.23;8.80;;;15.10;99.90;;;;;;5130483;27;20449;-70
2022/09/11 06:06:01;;;;;;;11.00;9.05;;;15.10;99.90;;;;;;5130328;27;20395;-71
2022/09/11 06:08:28;;;;;;;12.10;9.85;;;15.20;99.90;;;;;;5130647;27;21114;-71
2022/09/11 06:10:54;;;;;;;9.27;8.27;;;15.20;99.90;;;;;;5130077;27;20429;-71
2022/09/11 06:13:21;;;;;;;10.70;8.57;;;15.20;99.90;;;;;;5125943;27;20429;-70
2022/09/11 06:15:47;;;;;;;10.13;9.00;;;15.30;99.90;;;;;;5101236;27;20412;-71
2022/09/11 06:18:14;;;;;;;12.30;8.57;;;15.40;99.90;;;;;;5126171;27;20404;-72
2022/09/11 06:20:40;;;;;;;12.65;8.93;;;15.40;99.90;;;;;;5124991;27;20433;-72
2022/09/11 06:23:09;;;;;;;12.85;9.55;;;15.40;99.90;;;;;;5126977;27;20391;-72
2022/09/11 06:25:35;;;;;;;12.30;9.52;;;15.50;99.90;;;;;;5124115;27;20819;-72
2022/09/11 06:28:02;;;;;;;12.60;9.15;;;15.50;99.90;;;;;;5128499;27;20761;-72
2022/09/11 06:30:27;;;;;;;10.93;9.13;;;15.50;99.90;;;;;;5122917;27;20504;-73
2022/09/11 06:32:55;;;;;;;12.50;10.77;;;15.60;99.90;;;;;;5133665;27;20501;-73
2022/09/11 06:35:22;;;;;;;12.93;10.70;;;15.70;99.90;;;;;;5128998;27;20395;-73
2022/09/11 06:37:48;;;;;;;13.82;10.85;;;15.70;99.90;;;;;;5129297;27;20809;-73
2022/09/11 06:40:13;;;;;;;14.27;11.27;;;15.80;99.90;;;;;;5128810;27;20391;-73
2022/09/11 06:42:39;;;;;;;12.88;10.50;;;15.80;99.90;;;;;;5128807;27;20403;-72
2022/09/11 06:45:07;;;;;;;13.40;10.57;;;15.90;99.90;;;;;;5124502;27;20448;-72
2022/09/11 06:47:33;;;;;;;14.05;10.63;;;15.90;99.90;;;;;;5124609;27;20432;-72
2022/09/11 06:49:58;;;;;;;14.85;10.93;;;16.00;99.90;;;;;;5094253;27;20432;-73
2022/09/11 06:52:24;;;;;;;14.25;11.40;;;16.10;99.90;;;;;;5123945;27;20403;-73
2022/09/11 06:54:50;;;;;;;14.63;11.13;;;16.20;99.90;;;;;;5109465;27;20900;-73
2022/09/11 06:57:15;;;;;;;13.30;11.10;;;16.20;99.90;;;;;;5126267;27;20476;-73
2022/09/11 06:59:42;;;;;;;14.13;11.40;;;16.30;99.90;;;;;;5128419;27;20399;-72
2022/09/11 07:02:08;;;;;;;14.40;11.25;;;16.40;99.90;;;;;;5128486;27;20479;-73
2022/09/11 07:04:34;;;;;;;16.80;11.73;;;16.40;99.90;;;;;;5123951;27;20399;-73
2022/09/11 07:07:00;;;;;;;13.83;11.23;;;16.50;99.90;;;;;;5125065;27;20397;-73
2022/09/11 07:09:26;;;;;;;17.35;11.65;;;16.60;99.90;;;;;;5123717;27;20532;-73
2022/09/11 07:11:52;;;;;;;18.42;12.18;;;16.60;99.90;;;;;;5120701;27;20470;-72
2022/09/11 07:14:20;;;;;;;16.55;11.77;;;16.70;99.90;;;;;;5125659;27;20955;-73
2022/09/11 07:16:54;;;;;;;15.67;11.83;;;16.80;99.90;;;;;;5128127;27;20401;-73
2022/09/11 07:19:20;;;;;;;14.63;11.18;;;16.90;99.90;;;;;;5127252;27;20395;-72
2022/09/11 07:21:46;;;;;;;16.08;12.60;;;16.90;99.90;;;;;;5128620;27;20487;-73
2022/09/11 07:24:12;;;;;;;15.37;11.43;;;17.00;99.90;;;;;;5128398;27;20951;-73
2022/09/11 07:26:38;;;;;;;15.13;11.23;;;17.10;99.90;;;;;;5122283;27;20469;-72
2022/09/11 07:29:04;;;;;;;15.07;10.30;;;17.10;99.90;;;;;;5115034;27;20767;-72
2022/09/11 07:31:33;;;;;;;14.57;10.18;;;17.20;99.90;;;;;;5115632;27;20482;-72
2022/09/11 07:34:01;;;;;;;11.32;8.60;;;17.30;99.90;;;;;;5129623;27;20390;-72
2022/09/11 07:36:30;;;;;;;11.38;8.05;;;17.30;99.90;;;;;;5104062;27;20408;-73
2022/09/11 07:38:57;;;;;;;11.85;7.93;;;17.40;99.90;;;;;;5121119;27;20496;-73
2022/09/11 07:41:24;;;;;;;11.80;7.88;;;17.50;99.90;;;;;;5121192;27;20410;-72
2022/09/11 07:43:59;;;;;;;11.80;8.43;;;17.60;99.90;;;;;;5122703;27;20734;-72
2022/09/11 07:46:25;;;;;;;11.40;7.03;;;17.60;99.90;;;;;;5126043;27;20772;-73
2022/09/11 07:48:51;;;;;;;10.15;6.80;;;17.70;99.90;;;;;;5117815;27;20394;-73
2022/09/11 07:51:18;;;;;;;9.73;6.63;;;17.80;99.90;;;;;;5110010;28;20804;-73
2022/09/11 07:53:51;;;;;;;9.43;6.20;;;17.80;99.90;;;;;;5117540;27;20475;-72
2022/09/11 07:56:22;;;;;;;12.02;6.90;;;17.90;99.90;;;;;;5125732;27;20398;-73
2022/09/11 07:58:49;;;;;;;10.15;6.40;;;18.00;99.90;;;;;;5126934;27;20402;-71
2022/09/11 08:01:20;;;;;;;10.18;6.55;;;18.10;99.90;;;;;;5104248;28;20777;-72
2022/09/11 08:03:48;;;;;;;9.00;6.27;;;18.20;99.90;;;;;;5125800;27;20426;-71
2022/09/11 08:06:17;;;;;;;8.85;5.65;;;18.40;99.90;;;;;;5108191;28;20864;-72
2022/09/11 08:08:43;;;;;;;8.73;4.67;;;18.40;99.90;;;;;;5105954;28;20420;-72
2022/09/11 08:11:15;;;;;;;9.95;5.43;;;18.50;99.90;;;;;;5125038;28;20873;-72
2022/09/11 08:13:41;;;;;;;11.07;5.60;;;18.60;99.90;;;;;;5118181;27;20426;-72
2022/09/11 08:16:07;;;;;;;7.85;3.47;;;18.70;99.90;;;;;;5125311;27;20495;-71
2022/09/11 08:18:34;;;;;;;8.30;3.50;;;18.80;99.90;;;;;;5120405;28;20920;-72
2022/09/11 08:21:07;;;;;;;6.13;3.43;;;18.90;99.90;;;;;;5127123;28;20407;-72
2022/09/11 08:23:33;;;;;;;5.88;3.13;;;19.00;99.90;;;;;;5116493;28;20424;-72
2022/09/11 08:26:10;;;;;;;7.32;3.30;;;19.20;99.90;;;;;;5123218;28;20906;-72
2022/09/11 08:28:37;;;;;;;7.03;3.47;;;19.50;99.90;;;;;;5120542;28;21052;-72
2022/09/11 08:31:04;;;;;;;6.32;3.20;;;19.70;99.90;;;;;;5112393;28;20403;-72
2022/09/11 08:33:34;;;;;;;6.60;3.42;;;19.80;99.90;;;;;;5107738;28;20414;-72
2022/09/11 08:36:02;;;;;;;6.45;2.72;;;19.90;99.90;;;;;;5128181;28;20399;-72
2022/09/11 08:38:28;;;;;;;8.25;2.97;;;19.90;99.90;;;;;;5119599;28;20422;-72
2022/09/11 08:40:57;;;;;;;6.73;3.00;;;19.90;99.90;;;;;;5128553;28;20764;-72
2022/09/11 08:43:32;;;;;;;6.78;3.08;;;20.00;99.90;;;;;;5124722;28;21031;-72
2022/09/11 08:46:03;;;;;;;6.38;3.00;;;20.10;99.90;;;;;;5123351;28;20484;-72
2022/09/11 08:48:51;;;;;;;6.73;2.83;;;20.20;99.90;;;;;;5125085;28;20422;-72
2022/09/11 08:51:17;;;;;;;6.78;2.92;;;20.30;99.90;;;;;;5120651;28;20431;-72
2022/09/11 08:53:44;;;;;;;4.90;2.70;;;20.30;99.90;;;;;;5120137;28;20402;-72
2022/09/11 08:56:21;;;;;;;6.57;2.25;;;20.40;99.90;;;;;;5127160;27;20422;-72
2022/09/11 08:59:19;;;;;;;5.70;3.05;;;20.50;99.90;;;;;;5127805;28;20488;-72
2022/09/11 09:02:17;;;;;;;5.88;2.13;;;20.60;99.90;;;;;;5102400;27;20444;-72
2022/09/11 09:05:08;;;;;;;5.93;2.03;;;20.60;99.90;;;;;;5126496;28;20418;-71
2022/09/11 09:07:58;;;;;;;5.80;2.22;;;20.70;99.90;;;;;;5120118;27;20481;-71
2022/09/11 09:10:47;;;;;;;4.80;2.10;;;20.80;99.90;;;;;;5127786;28;20426;-71
2022/09/11 09:13:40;;;;;;;3.20;1.88;;;21.00;99.90;;;;;;5119103;28;20498;-71
2022/09/11 09:16:15;;;;;;;3.10;1.30;;;21.10;99.90;;;;;;5127431;27;21035;-67
2022/09/11 09:19:09;;;;;;;4.53;1.75;;;21.60;99.90;;;;;;5123637;27;20904;-67
2022/09/11 09:22:06;;;;;;;7.13;2.10;;;22.50;99.90;;;;;;5127773;27;20406;-67
2022/09/11 09:24:40;;;;;;;3.20;1.25;;;22.90;99.90;;;;;;5129461;27;20791;-69
2022/09/11 09:27:06;;;;;;;3.25;1.80;;;23.70;99.90;;;;;;5129546;27;21185;-66
2022/09/11 09:29:38;;;;;;;4.85;1.80;;;24.60;99.90;;;;;;5129593;27;20419;-66
2022/09/11 09:32:10;;;;;;;2.92;1.23;;;25.20;99.90;;;;;;5128048;27;20422;-66
2022/09/11 09:34:39;;;;;;;4.05;1.60;;;25.90;99.90;;;;;;5092730;28;20412;-67
2022/09/11 09:37:19;;;;;;;3.05;1.40;;;26.50;97.70;;;;;;5108294;27;20884;-66
2022/09/11 09:39:46;;;;;;;4.55;1.67;;;26.30;97.40;;;;;;5129098;27;20493;-66
2022/09/11 09:42:40;;;;;;;3.63;1.73;;;25.80;96.30;;;;;;5119739;27;20787;-66
2022/09/11 09:45:22;;;;;;;4.13;1.80;;;25.80;97.20;;;;;;5129632;27;20418;-70
2022/09/11 09:47:48;;;;;;;5.40;1.67;;;26.40;97.30;;;;;;5130209;27;20785;-70
2022/09/11 09:50:27;;;;;;;4.53;1.70;;;27.00;95.80;;;;;;5121962;27;20460;-70
2022/09/11 09:53:03;;;;;;;5.68;1.70;;;27.50;95.80;;;;;;5131422;27;20446;-69
2022/09/11 09:55:31;;;;;;;4.32;1.85;;;27.90;94.60;;;;;;5130913;27;20967;-69
2022/09/11 09:57:56;;;;;;;4.57;1.63;;;28.30;94.60;;;;;;5130478;27;20851;-69
2022/09/11 10:00:22;;;;;;;4.13;1.80;;;28.70;93.60;;;;;;5120372;27;20483;-69
2022/09/11 10:02:57;;;;;;;4.18;1.90;;;28.90;92.50;;;;;;5114664;27;20398;-69
2022/09/11 10:05:27;;;;;;;3.78;1.67;;;29.20;92.40;;;;;;5131005;27;20399;-70
2022/09/11 10:07:56;;;;;;;3.75;1.80;;;29.60;91.50;;;;;;5124887;27;20495;-69
2022/09/11 10:10:31;;;;;;;;;;;29.80;90.40;;;;;;5111908;28;20050;-69
2022/09/11 10:13:04;;;;;;;3.97;1.02;;;29.80;89.20;;;;;;5111771;28;19919;-69
2022/09/11 10:15:30;;;;;;;;;;;29.70;88.40;;;;;;5113597;27;20088;-69
2022/09/11 10:18:28;;;;;;;1.60;0.70;;;29.90;87.50;;;;;;5132170;27;19923;-70
2022/09/11 10:21:11;;;;;;;;;;;30.20;86.00;;;;;;5118491;27;20169;-69
2022/09/11 10:23:49;;;;;;;;;;;30.20;84.30;;;;;;5131430;27;20056;-69
2022/09/11 10:26:28;;;;;;;;;;;29.50;83.50;;;;;;5131305;27;19998;-69
2022/09/11 10:28:57;;;;;;;;;;;28.70;85.70;;;;;;5128510;27;19920;-69
2022/09/11 10:31:23;;;;;;;;;;;28.10;85.10;;;;;;5126896;27;20010;-70
2022/09/11 10:33:59;;;;;;;;;;;28.10;85.40;;;;;;5126693;27;20456;-70
2022/09/11 10:36:26;;;;;;;;;;;28.50;86.70;;;;;;5129167;27;19965;-70
2022/09/11 10:38:51;;;;;;;;;;;28.70;85.20;;;;;;5129439;27;20003;-69
2022/09/11 10:41:19;;;;;;;;;;;28.50;85.70;;;;;;5131537;27;20347;-70
2022/09/11 10:43:47;;;;;;;;;;;27.90;85.00;;;;;;5114561;27;19962;-70
2022/09/11 10:46:27;;;;;;;;;;;27.10;85.30;;;;;;5127115;27;19926;-69
2022/09/11 10:48:54;;;;;;;;;;;26.40;86.80;;;;;;5119969;27;19971;-69
2022/09/11 10:51:21;;;;;;;;;;;25.70;87.20;;;;;;5126874;27;19919;-70
2022/09/11 10:53:58;;;;;;;;;;;25.20;88.90;;;;;;5124099;27;20010;-69
2022/09/11 10:56:24;;;;;;;;;;;25.30;90.60;;;;;;5111157;27;20413;-70
2022/09/11 10:58:54;;;;;;;;;;;25.80;90.80;;;;;;5130269;27;19929;-69
2022/09/11 11:01:19;;;;;;;;;;;26.30;90.70;;;;;;5125731;27;20426;-70
2022/09/11 11:03:45;;;;;;;;;;;26.80;90.10;;;;;;5129393;27;19920;-70
2022/09/11 11:06:26;;;;;;;;;;;27.50;89.30;;;;;;5125078;27;19919;-70
2022/09/11 11:08:56;;;;;;;;;;;28.10;89.20;;;;;;5125468;27;19924;-70
2022/09/11 11:11:23;;;;;;;;;;;28.60;85.90;;;;;;5129747;27;20006;-72
2022/09/11 11:14:03;;;;;;;;;;;28.50;85.80;;;;;;5122700;27;19919;-72
2022/09/11 11:16:45;;;;;;;;;;;27.70;84.60;;;;;;5129206;27;19934;-72
2022/09/11 11:19:29;;;;;;;;;;;26.70;86.50;;;;;;5129528;27;19919;-71
2022/09/11 11:22:07;;;;;;;;;;;26.00;89.30;;;;;;5125983;27;20339;-70
2022/09/11 11:24:57;;;;;;;;;;;25.40;90.10;;;;;;5134018;27;20010;-70
2022/09/11 11:27:26;;;;;;;;;;;24.90;90.80;;;;;;5125585;27;19919;-70
2022/09/11 11:30:10;;;;;;;;;;;24.60;91.30;;;;;;5129509;27;19989;-70
2022/09/11 11:32:47;;;;;;;;;;;24.20;91.70;;;;;;5111365;28;20011;-70
2022/09/11 11:35:24;;;;;;;;;;;23.90;91.80;;;;;;5109610;27;20003;-70
2022/09/11 11:37:54;;;;;;;;;;;23.70;92.70;;;;;;5139787;27;19950;-70
2022/09/11 11:40:26;;;;;;;;;;;23.50;92.80;;;;;;5134968;27;19919;-71
2022/09/11 11:43:00;;;;;;;;;;;23.40;93.10;;;;;;5147127;27;19930;-71
2022/09/11 11:45:32;;;;;;;;;;;23.20;93.20;;;;;;5140993;27;19927;-69
2022/09/11 11:48:04;;;;;;;;;;;23.10;93.50;;;;;;5132176;27;20468;-70
2022/09/11 11:50:41;;;;;;;;;;;23.00;93.50;;;;;;5131296;27;20052;-70
2022/09/11 11:53:18;;;;;;;;;;;23.00;93.60;;;;;;5130879;27;19927;-71
2022/09/11 11:55:47;;;;;;;;;;;22.90;93.70;;;;;;5128555;27;19976;-70
2022/09/11 11:58:21;;;;;;;;;;;23.00;93.80;;;;;;5130020;27;20041;-70
2022/09/11 12:00:50;;;;;;;;;;;23.00;93.80;;;;;;5128364;27;19919;-70
2022/09/11 12:03:25;;;;;;;;;;;22.90;93.50;;;;;;5109874;28;19919;-70
2022/09/11 12:05:50;;;;;;;;;;;22.90;93.40;;;;;;5123245;28;19920;-71
2022/09/11 12:08:16;;;;;;;;;;;23.00;93.60;;;;;;5120980;28;19930;-70
2022/09/11 12:10:53;;;;;;;;;;;23.00;93.60;;;;;;5125749;28;19980;-71
2022/09/11 12:13:19;;;;;;;;;;;23.10;93.80;;;;;;5121396;28;19923;-70
2022/09/11 12:16:05;;;;;;;;;;;23.80;94.40;;;;;;5130529;27;19919;-72
2022/09/11 12:18:31;;;;;;;;;;;25.00;94.00;;;;;;5129998;27;19919;-71
2022/09/11 12:21:20;;;;;;;;;;;26.30;92.70;;;;;;5144167;27;19927;-72
2022/09/11 12:23:48;;;;;;;;;;;27.30;91.80;;;;;;5094555;28;19925;-72
2022/09/11 12:26:21;;;;;;;;;;;28.10;90.40;;;;;;5150207;28;19915;-71
2022/09/11 12:28:46;;;;;;;;;;;28.30;88.90;;;;;;5148684;28;19919;-71
2022/09/11 12:31:13;;;;;;;;;;;27.90;88.00;;;;;;5151309;27;19982;-71
2022/09/11 12:33:38;;;;;;;;;;;27.80;87.10;;;;;;5134138;27;19919;-71
2022/09/11 12:36:06;;;;;;;;;;;28.00;86.70;;;;;;5116732;28;20270;-71
2022/09/11 12:38:36;;;;;;;;;;;27.90;86.50;;;;;;5116473;28;19926;-71
2022/09/11 12:41:06;;;;;;;;;;;28.10;86.10;;;;;;5130517;28;20374;-72
2022/09/11 12:43:34;;;;;;;;;;;28.60;84.60;;;;;;5129858;28;19931;-72
2022/09/11 12:46:01;;;;;;;;;;;29.20;84.90;;;;;;5125721;28;20289;-71
2022/09/11 12:48:37;;;;;;;;;;;29.50;83.70;;;;;;5129411;27;19926;-72
2022/09/11 12:51:04;;;;;;;;;;;29.20;83.00;;;;;;5133173;27;19942;-71
2022/09/11 12:53:35;;;;;;;;;;;28.60;81.60;;;;;;5133489;27;20416;-70
2022/09/11 12:56:05;;;;;;;;;;;27.90;83.90;;;;;;5131080;27;19919;-70
2022/09/11 12:58:36;;;;;;;;;;;28.00;84.60;;;;;;5133537;27;20035;-70
2022/09/11 13:01:12;;;;;;;;;;;27.60;83.70;;;;;;5133743;27;19926;-71
2022/09/11 13:03:56;;;;;;;;;;;26.90;84.40;;;;;;5133071;27;20017;-71
2022/09/11 13:06:23;;;;;;;;;;;26.30;85.10;;;;;;5131382;27;19926;-71
2022/09/11 13:08:50;;;;;;;;;;;25.80;86.00;;;;;;5133570;27;19923;-71
2022/09/11 13:11:34;;;;;;;;;;;25.50;87.20;;;;;;5126018;27;19976;-72
2022/09/11 13:14:00;;;;;;;;;;;25.30;88.10;;;;;;5127420;27;20006;-71
2022/09/11 13:16:27;;;;;;;;;;;25.20;87.80;;;;;;5124023;27;20018;-71